VVDNVVNB

Guest
Details From VVDN - Danang Intl
To VVNB - Hanoi Noibai Intl
Flight Number -
Tags Generated
Created
Modified
Stats Distance 339 nm / 628 km
Max Altitude 0 ft / 0 m
Waypoints 3
Social Downloads 14
Likes 0
Share VATSIM

Download

Looking for another format? Having issues loading an existing format? Contact us
Advertisement - Login to hide

Notes

Generated

Route

VVDN R2150 VVNB

ID Type Via Altitude Latitude Longitude Leg Dist Tot Dist Heading (true) Name
O VVDN APT - 0 ft / 0 m 16.05741˚ 108.19643˚ - 0 nm - -
R2150 FIX - 0 ft / 0 m 21.22489˚ 105.78623˚ 339 nm 339 nm 337° / 336° -
O VVNB APT - 0 ft / 0 m 21.22489˚ 105.78623˚ 0 nm 339 nm 0° / 180° -

Altitude Profile

Advertisement - Login to hide

Weather


0- 5 10 15 20 25 30 35+ Temperature / ° C

Clouds and Precipitation
Forecast for 2018-05-23 18:00 UTC. Updated 2 hours ago

Ground ~20,000 ft ~40,000 ft Winds

VVDN

Details ICAO VVDN (DAD)
Name DANANG INTL
Region Vietnam
Timezone Asia/Ho_Chi_Minh (UTC+7.0)
Stats Elevation 33 ft / 10 m (AMSL)
Location 16.043901° 108.199400°
Runways 2
Magnetic Variation 1.190° W

METAR

VVDN 231900Z 22002KT 9999 FEW017 27/24 Q1008 NOSIG

Decode

TAF

TAF VVDN 231700Z 2318/2418 25004KT 9999 FEW015 BECMG 2404/2405 10010KT TEMPO 2408/2414 TS SCT013 FEW015CB SCT050

Decode

Departure Runways

ID Width Length Bearing (true) Bearing (mag) Surface Threshold Offset Overrun Length
17L 148 ft / 45 m 10,053 ft / 3,064 m 172.06° 173.25° Asphalt 0 ft / 0 m 1,000 ft / 305 m
17R 148 ft / 45 m 10,052 ft / 3,064 m 172.06° 173.25° Asphalt 0 ft / 0 m 1,000 ft / 305 m
35L 148 ft / 45 m 10,052 ft / 3,064 m 352.06° 353.25° Asphalt 0 ft / 0 m 1,000 ft / 305 m
35R 148 ft / 45 m 10,053 ft / 3,064 m 352.06° 353.25° Asphalt 0 ft / 0 m 1,000 ft / 305 m

VVNB

Details ICAO VVNB (HAN)
Name Hanoi Noibai Intl
Region Vietnam
Timezone Asia/Ho_Chi_Minh (UTC+7.0)
Stats Elevation 39 ft / 12 m (AMSL)
Location 21.219739° 105.803774°
Runways 2
Magnetic Variation 1.490° W

METAR

VVNB 231900Z 11005KT CAVOK 27/26 Q1007 NOSIG

Decode

TAF

TAF VVNB 231700Z 2318/2418 14006KT 9999 SCT020

Decode

Destination Runways

ID Width Length Bearing (true) Bearing (mag) Surface Threshold Offset Overrun Length
11L 148 ft / 45 m 12,454 ft / 3,796 m 107.24° 108.73° Concrete 0 ft / 0 m 0 ft / 0 m
11R 148 ft / 45 m 12,456 ft / 3,797 m 107.22° 108.71° Concrete 0 ft / 0 m 325 ft / 99 m
29L 148 ft / 45 m 12,456 ft / 3,797 m 287.23° 288.72° Concrete 0 ft / 0 m 325 ft / 99 m
29R 148 ft / 45 m 12,454 ft / 3,796 m 287.25° 288.74° Concrete 0 ft / 0 m 868 ft / 265 m

Approach Navaids

Runway Type Ident Frequency Range Bearing (true) Bearing (mag) Slope Elevation
11L Localiser NB 110.50 MHz 18 nm / 33 km 104.05° 105.54° - 39 ft / 12 m (AMSL)
11L Glidescope NB 110.50 MHz 10 nm / 19 km 107.25° 108.74° 3.00° 39 ft / 12 m (AMSL)
11L DME NB 110.50 MHz 18 nm / 33 km - - - 39 ft / 12 m (AMSL)

Popular Alternatives